sensor_id;sensor_type;location;lat;lon;timestamp;P1;durP1;ratioP1;P2;durP2;ratioP2
8887;SDS011;4480;52.370;9.748;2023-05-07T00:02:19;20.03;;;16.90;;
8887;SDS011;4480;52.370;9.748;2023-05-07T00:04:46;21.77;;;17.67;;
8887;SDS011;4480;52.370;9.748;2023-05-07T00:07:12;20.70;;;16.67;;
8887;SDS011;4480;52.370;9.748;2023-05-07T00:09:39;21.50;;;16.23;;
8887;SDS011;4480;52.370;9.748;2023-05-07T00:12:07;19.50;;;16.90;;
8887;SDS011;4480;52.370;9.748;2023-05-07T00:14:34;24.00;;;16.67;;
8887;SDS011;4480;52.370;9.748;2023-05-07T00:17:01;21.55;;;15.68;;
8887;SDS011;4480;52.370;9.748;2023-05-07T00:19:28;21.93;;;17.27;;
8887;SDS011;4480;52.370;9.748;2023-05-07T00:21:55;20.20;;;16.77;;
8887;SDS011;4480;52.370;9.748;2023-05-07T00:24:22;21.40;;;16.20;;
8887;SDS011;4480;52.370;9.748;2023-05-07T00:26:48;22.45;;;17.27;;
8887;SDS011;4480;52.370;9.748;2023-05-07T00:29:17;22.37;;;16.13;;
8887;SDS011;4480;52.370;9.748;2023-05-07T00:31:44;23.08;;;19.00;;
8887;SDS011;4480;52.370;9.748;2023-05-07T00:34:10;22.90;;;17.55;;
8887;SDS011;4480;52.370;9.748;2023-05-07T00:36:37;30.15;;;19.60;;
8887;SDS011;4480;52.370;9.748;2023-05-07T00:39:04;22.90;;;16.90;;
8887;SDS011;4480;52.370;9.748;2023-05-07T00:41:31;25.10;;;18.25;;
8887;SDS011;4480;52.370;9.748;2023-05-07T00:43:58;23.17;;;15.53;;
8887;SDS011;4480;52.370;9.748;2023-05-07T00:46:28;18.75;;;16.33;;
8887;SDS011;4480;52.370;9.748;2023-05-07T00:48:57;23.33;;;16.90;;
8887;SDS011;4480;52.370;9.748;2023-05-07T00:51:24;23.60;;;18.67;;
8887;SDS011;4480;52.370;9.748;2023-05-07T00:53:52;26.55;;;19.15;;
8887;SDS011;4480;52.370;9.748;2023-05-07T00:56:20;22.33;;;17.23;;
8887;SDS011;4480;52.370;9.748;2023-05-07T00:58:47;25.55;;;17.73;;
8887;SDS011;4480;52.370;9.748;2023-05-07T01:01:14;21.23;;;16.37;;
8887;SDS011;4480;52.370;9.748;2023-05-07T01:03:43;23.30;;;18.42;;
8887;SDS011;4480;52.370;9.748;2023-05-07T01:06:10;21.77;;;17.20;;
8887;SDS011;4480;52.370;9.748;2023-05-07T01:08:38;23.05;;;18.95;;
8887;SDS011;4480;52.370;9.748;2023-05-07T01:11:05;28.75;;;18.13;;
8887;SDS011;4480;52.370;9.748;2023-05-07T01:13:33;25.33;;;18.53;;
8887;SDS011;4480;52.370;9.748;2023-05-07T01:16:01;23.10;;;17.50;;
8887;SDS011;4480;52.370;9.748;2023-05-07T01:18:28;24.00;;;17.23;;
8887;SDS011;4480;52.370;9.748;2023-05-07T01:20:57;24.65;;;18.20;;
8887;SDS011;4480;52.370;9.748;2023-05-07T01:23:26;26.95;;;19.15;;
8887;SDS011;4480;52.370;9.748;2023-05-07T01:25:54;29.50;;;19.17;;
8887;SDS011;4480;52.370;9.748;2023-05-07T01:28:20;25.43;;;19.37;;
8887;SDS011;4480;52.370;9.748;2023-05-07T01:30:48;23.02;;;18.02;;
8887;SDS011;4480;52.370;9.748;2023-05-07T01:33:18;25.17;;;18.73;;
8887;SDS011;4480;52.370;9.748;2023-05-07T01:35:48;28.00;;;19.42;;
8887;SDS011;4480;52.370;9.748;2023-05-07T01:38:17;25.77;;;18.88;;
8887;SDS011;4480;52.370;9.748;2023-05-07T01:40:46;24.48;;;18.70;;
8887;SDS011;4480;52.370;9.748;2023-05-07T01:43:13;27.65;;;18.48;;
8887;SDS011;4480;52.370;9.748;2023-05-07T01:45:40;30.20;;;20.55;;
8887;SDS011;4480;52.370;9.748;2023-05-07T01:48:07;26.20;;;18.60;;
8887;SDS011;4480;52.370;9.748;2023-05-07T01:50:36;23.35;;;18.25;;
8887;SDS011;4480;52.370;9.748;2023-05-07T01:53:03;23.75;;;17.33;;
8887;SDS011;4480;52.370;9.748;2023-05-07T01:55:30;21.15;;;16.85;;
8887;SDS011;4480;52.370;9.748;2023-05-07T01:57:58;24.00;;;17.63;;
8887;SDS011;4480;52.370;9.748;2023-05-07T02:00:25;24.05;;;17.02;;
8887;SDS011;4480;52.370;9.748;2023-05-07T02:02:52;20.55;;;15.88;;
8887;SDS011;4480;52.370;9.748;2023-05-07T02:05:19;28.50;;;15.77;;
8887;SDS011;4480;52.370;9.748;2023-05-07T02:07:46;23.50;;;16.40;;
8887;SDS011;4480;52.370;9.748;2023-05-07T02:10:13;19.35;;;14.85;;
8887;SDS011;4480;52.370;9.748;2023-05-07T02:12:39;22.63;;;16.20;;
8887;SDS011;4480;52.370;9.748;2023-05-07T02:15:09;24.37;;;15.90;;
8887;SDS011;4480;52.370;9.748;2023-05-07T02:17:38;18.80;;;13.57;;
8887;SDS011;4480;52.370;9.748;2023-05-07T02:20:06;21.30;;;13.75;;
8887;SDS011;4480;52.370;9.748;2023-05-07T02:22:38;17.17;;;13.57;;
8887;SDS011;4480;52.370;9.748;2023-05-07T02:25:05;15.45;;;13.02;;
8887;SDS011;4480;52.370;9.748;2023-05-07T02:27:32;16.27;;;12.38;;
8887;SDS011;4480;52.370;9.748;2023-05-07T02:29:58;18.60;;;12.75;;
8887;SDS011;4480;52.370;9.748;2023-05-07T02:32:26;15.85;;;12.32;;
8887;SDS011;4480;52.370;9.748;2023-05-07T02:34:53;14.85;;;11.63;;
8887;SDS011;4480;52.370;9.748;2023-05-07T02:37:20;15.23;;;11.65;;
8887;SDS011;4480;52.370;9.748;2023-05-07T02:39:46;16.45;;;10.18;;
8887;SDS011;4480;52.370;9.748;2023-05-07T02:42:13;12.60;;;10.57;;
8887;SDS011;4480;52.370;9.748;2023-05-07T02:44:40;13.68;;;10.52;;
8887;SDS011;4480;52.370;9.748;2023-05-07T02:47:07;12.40;;;9.75;;
8887;SDS011;4480;52.370;9.748;2023-05-07T02:49:35;15.07;;;10.20;;
8887;SDS011;4480;52.370;9.748;2023-05-07T02:52:02;11.25;;;9.15;;
8887;SDS011;4480;52.370;9.748;2023-05-07T02:54:29;13.50;;;9.80;;
8887;SDS011;4480;52.370;9.748;2023-05-07T02:56:56;11.57;;;9.50;;
8887;SDS011;4480;52.370;9.748;2023-05-07T02:59:23;15.10;;;11.07;;
8887;SDS011;4480;52.370;9.748;2023-05-07T03:01:51;14.68;;;10.00;;
8887;SDS011;4480;52.370;9.748;2023-05-07T03:04:17;12.45;;;10.73;;
8887;SDS011;4480;52.370;9.748;2023-05-07T03:06:46;12.77;;;11.00;;
8887;SDS011;4480;52.370;9.748;2023-05-07T03:09:13;11.83;;;9.90;;
8887;SDS011;4480;52.370;9.748;2023-05-07T03:11:40;13.57;;;9.98;;
8887;SDS011;4480;52.370;9.748;2023-05-07T03:14:06;13.80;;;10.17;;
8887;SDS011;4480;52.370;9.748;2023-05-07T03:16:33;12.70;;;10.38;;
8887;SDS011;4480;52.370;9.748;2023-05-07T03:19:00;13.10;;;10.45;;
8887;SDS011;4480;52.370;9.748;2023-05-07T03:21:27;12.27;;;9.02;;
8887;SDS011;4480;52.370;9.748;2023-05-07T03:23:55;12.35;;;9.52;;
8887;SDS011;4480;52.370;9.748;2023-05-07T03:26:22;11.65;;;10.15;;
8887;SDS011;4480;52.370;9.748;2023-05-07T03:28:49;13.70;;;10.07;;
8887;SDS011;4480;52.370;9.748;2023-05-07T03:31:15;11.88;;;9.73;;
8887;SDS011;4480;52.370;9.748;2023-05-07T03:33:49;14.63;;;8.77;;
8887;SDS011;4480;52.370;9.748;2023-05-07T03:36:17;11.85;;;9.30;;
8887;SDS011;4480;52.370;9.748;2023-05-07T03:38:43;11.18;;;9.63;;
8887;SDS011;4480;52.370;9.748;2023-05-07T03:41:12;11.43;;;8.45;;
8887;SDS011;4480;52.370;9.748;2023-05-07T03:43:38;14.73;;;9.60;;
8887;SDS011;4480;52.370;9.748;2023-05-07T03:46:05;13.80;;;9.20;;
8887;SDS011;4480;52.370;9.748;2023-05-07T03:48:32;12.52;;;9.85;;
8887;SDS011;4480;52.370;9.748;2023-05-07T03:50:59;10.65;;;8.73;;
8887;SDS011;4480;52.370;9.748;2023-05-07T03:53:26;12.50;;;10.10;;
8887;SDS011;4480;52.370;9.748;2023-05-07T03:55:52;11.45;;;9.10;;
8887;SDS011;4480;52.370;9.748;2023-05-07T03:58:21;11.88;;;7.88;;
8887;SDS011;4480;52.370;9.748;2023-05-07T04:00:47;10.35;;;8.52;;
8887;SDS011;4480;52.370;9.748;2023-05-07T04:03:14;17.25;;;9.70;;
8887;SDS011;4480;52.370;9.748;2023-05-07T04:05:41;9.40;;;7.90;;
8887;SDS011;4480;52.370;9.748;2023-05-07T04:11:38;10.80;;;8.90;;
8887;SDS011;4480;52.370;9.748;2023-05-07T04:14:05;11.02;;;8.82;;
8887;SDS011;4480;52.370;9.748;2023-05-07T04:16:32;12.13;;;8.48;;
8887;SDS011;4480;52.370;9.748;2023-05-07T04:19:00;11.93;;;9.43;;
8887;SDS011;4480;52.370;9.748;2023-05-07T04:21:27;11.43;;;9.48;;
8887;SDS011;4480;52.370;9.748;2023-05-07T04:23:55;12.38;;;9.05;;
8887;SDS011;4480;52.370;9.748;2023-05-07T04:26:22;12.00;;;9.95;;
8887;SDS011;4480;52.370;9.748;2023-05-07T04:28:50;10.57;;;9.10;;
8887;SDS011;4480;52.370;9.748;2023-05-07T04:31:17;13.15;;;9.50;;
8887;SDS011;4480;52.370;9.748;2023-05-07T04:33:44;11.20;;;8.43;;
8887;SDS011;4480;52.370;9.748;2023-05-07T04:36:11;12.57;;;10.00;;
8887;SDS011;4480;52.370;9.748;2023-05-07T04:38:38;11.23;;;9.35;;
8887;SDS011;4480;52.370;9.748;2023-05-07T04:41:05;12.35;;;9.10;;
8887;SDS011;4480;52.370;9.748;2023-05-07T04:43:32;9.85;;;8.57;;
8887;SDS011;4480;52.370;9.748;2023-05-07T04:46:00;13.23;;;9.63;;
8887;SDS011;4480;52.370;9.748;2023-05-07T04:48:27;12.05;;;9.43;;
8887;SDS011;4480;52.370;9.748;2023-05-07T04:50:55;15.65;;;10.63;;
8887;SDS011;4480;52.370;9.748;2023-05-07T04:53:21;12.52;;;10.05;;
8887;SDS011;4480;52.370;9.748;2023-05-07T04:55:48;12.90;;;10.52;;
8887;SDS011;4480;52.370;9.748;2023-05-07T04:58:20;11.02;;;9.68;;
8887;SDS011;4480;52.370;9.748;2023-05-07T05:00:47;15.13;;;10.82;;
8887;SDS011;4480;52.370;9.748;2023-05-07T05:03:15;13.30;;;10.88;;
8887;SDS011;4480;52.370;9.748;2023-05-07T05:05:42;11.45;;;9.20;;
8887;SDS011;4480;52.370;9.748;2023-05-07T05:08:09;13.30;;;9.82;;
8887;SDS011;4480;52.370;9.748;2023-05-07T05:10:36;14.60;;;10.27;;
8887;SDS011;4480;52.370;9.748;2023-05-07T05:13:03;11.93;;;9.25;;
8887;SDS011;4480;52.370;9.748;2023-05-07T05:15:29;11.77;;;9.68;;
8887;SDS011;4480;52.370;9.748;2023-05-07T05:17:56;12.00;;;9.52;;
8887;SDS011;4480;52.370;9.748;2023-05-07T05:20:24;13.07;;;9.60;;
8887;SDS011;4480;52.370;9.748;2023-05-07T05:22:51;10.48;;;8.00;;
8887;SDS011;4480;52.370;9.748;2023-05-07T05:25:18;10.20;;;8.55;;
8887;SDS011;4480;52.370;9.748;2023-05-07T05:27:45;10.30;;;8.20;;
8887;SDS011;4480;52.370;9.748;2023-05-07T05:30:12;9.57;;;8.30;;
8887;SDS011;4480;52.370;9.748;2023-05-07T05:32:39;9.00;;;8.00;;
8887;SDS011;4480;52.370;9.748;2023-05-07T05:35:06;10.30;;;9.03;;
8887;SDS011;4480;52.370;9.748;2023-05-07T05:37:35;14.57;;;9.73;;
8887;SDS011;4480;52.370;9.748;2023-05-07T05:40:01;11.10;;;9.23;;
8887;SDS011;4480;52.370;9.748;2023-05-07T05:42:29;9.35;;;8.35;;
8887;SDS011;4480;52.370;9.748;2023-05-07T05:44:56;10.03;;;8.43;;
8887;SDS011;4480;52.370;9.748;2023-05-07T05:47:22;9.97;;;8.53;;
8887;SDS011;4480;52.370;9.748;2023-05-07T05:49:49;12.20;;;9.27;;
8887;SDS011;4480;52.370;9.748;2023-05-07T05:52:16;10.83;;;8.13;;
8887;SDS011;4480;52.370;9.748;2023-05-07T05:54:44;11.00;;;8.13;;
8887;SDS011;4480;52.370;9.748;2023-05-07T05:57:11;9.17;;;7.90;;
8887;SDS011;4480;52.370;9.748;2023-05-07T05:59:37;9.70;;;7.53;;
8887;SDS011;4480;52.370;9.748;2023-05-07T06:02:04;9.30;;;8.30;;
8887;SDS011;4480;52.370;9.748;2023-05-07T06:04:31;10.57;;;9.30;;
8887;SDS011;4480;52.370;9.748;2023-05-07T06:06:58;10.67;;;7.93;;
8887;SDS011;4480;52.370;9.748;2023-05-07T06:09:24;9.03;;;8.00;;
8887;SDS011;4480;52.370;9.748;2023-05-07T06:11:52;8.03;;;7.10;;
8887;SDS011;4480;52.370;9.748;2023-05-07T06:14:19;9.60;;;8.40;;
8887;SDS011;4480;52.370;9.748;2023-05-07T06:16:46;9.73;;;8.33;;
8887;SDS011;4480;52.370;9.748;2023-05-07T06:19:13;9.50;;;8.17;;
8887;SDS011;4480;52.370;9.748;2023-05-07T06:21:39;8.80;;;7.70;;
8887;SDS011;4480;52.370;9.748;2023-05-07T06:24:06;9.33;;;7.90;;
8887;SDS011;4480;52.370;9.748;2023-05-07T06:26:33;9.50;;;8.07;;
8887;SDS011;4480;52.370;9.748;2023-05-07T06:29:01;9.97;;;8.57;;
8887;SDS011;4480;52.370;9.748;2023-05-07T06:31:29;9.57;;;7.57;;
8887;SDS011;4480;52.370;9.748;2023-05-07T06:33:57;9.10;;;7.80;;
8887;SDS011;4480;52.370;9.748;2023-05-07T06:36:24;9.47;;;8.47;;
8887;SDS011;4480;52.370;9.748;2023-05-07T06:38:51;9.07;;;7.60;;
8887;SDS011;4480;52.370;9.748;2023-05-07T06:41:18;8.27;;;6.37;;
8887;SDS011;4480;52.370;9.748;2023-05-07T06:43:45;8.57;;;7.77;;
8887;SDS011;4480;52.370;9.748;2023-05-07T06:46:13;7.60;;;6.83;;
8887;SDS011;4480;52.370;9.748;2023-05-07T06:48:40;7.87;;;6.93;;
8887;SDS011;4480;52.370;9.748;2023-05-07T06:51:07;7.93;;;7.13;;
8887;SDS011;4480;52.370;9.748;2023-05-07T06:53:34;7.73;;;6.10;;
8887;SDS011;4480;52.370;9.748;2023-05-07T06:56:01;8.57;;;7.67;;
8887;SDS011;4480;52.370;9.748;2023-05-07T06:58:28;8.10;;;7.30;;
8887;SDS011;4480;52.370;9.748;2023-05-07T07:00:55;8.87;;;7.40;;
8887;SDS011;4480;52.370;9.748;2023-05-07T07:03:23;8.47;;;7.60;;
8887;SDS011;4480;52.370;9.748;2023-05-07T07:05:51;8.80;;;7.90;;
8887;SDS011;4480;52.370;9.748;2023-05-07T07:08:18;9.03;;;8.10;;
8887;SDS011;4480;52.370;9.748;2023-05-07T07:10:46;9.83;;;8.83;;
8887;SDS011;4480;52.370;9.748;2023-05-07T07:13:13;9.40;;;8.50;;
8887;SDS011;4480;52.370;9.748;2023-05-07T07:15:40;10.37;;;9.40;;
8887;SDS011;4480;52.370;9.748;2023-05-07T07:18:06;10.10;;;9.10;;
8887;SDS011;4480;52.370;9.748;2023-05-07T07:20:34;11.87;;;9.90;;
8887;SDS011;4480;52.370;9.748;2023-05-07T07:23:01;11.80;;;10.60;;
8887;SDS011;4480;52.370;9.748;2023-05-07T07:25:28;11.57;;;10.37;;
8887;SDS011;4480;52.370;9.748;2023-05-07T07:27:55;11.03;;;9.40;;
8887;SDS011;4480;52.370;9.748;2023-05-07T07:30:21;11.80;;;10.50;;
8887;SDS011;4480;52.370;9.748;2023-05-07T07:32:48;11.23;;;10.13;;
8887;SDS011;4480;52.370;9.748;2023-05-07T07:35:15;10.30;;;9.30;;
8887;SDS011;4480;52.370;9.748;2023-05-07T07:37:43;11.70;;;10.40;;
8887;SDS011;4480;52.370;9.748;2023-05-07T07:40:11;11.70;;;10.50;;
8887;SDS011;4480;52.370;9.748;2023-05-07T07:42:38;10.40;;;9.33;;
8887;SDS011;4480;52.370;9.748;2023-05-07T07:45:05;11.60;;;9.60;;
8887;SDS011;4480;52.370;9.748;2023-05-07T07:47:33;11.10;;;9.97;;
8887;SDS011;4480;52.370;9.748;2023-05-07T07:50:00;9.50;;;8.40;;
8887;SDS011;4480;52.370;9.748;2023-05-07T07:52:26;10.20;;;9.20;;
8887;SDS011;4480;52.370;9.748;2023-05-07T07:54:54;11.87;;;10.77;;
8887;SDS011;4480;52.370;9.748;2023-05-07T07:57:21;10.70;;;9.70;;
8887;SDS011;4480;52.370;9.748;2023-05-07T07:59:48;10.67;;;9.30;;
8887;SDS011;4480;52.370;9.748;2023-05-07T08:02:15;9.50;;;8.57;;
8887;SDS011;4480;52.370;9.748;2023-05-07T08:04:42;10.43;;;9.23;;
8887;SDS011;4480;52.370;9.748;2023-05-07T08:07:09;9.83;;;8.83;;
8887;SDS011;4480;52.370;9.748;2023-05-07T08:09:36;9.20;;;8.30;;
8887;SDS011;4480;52.370;9.748;2023-05-07T08:12:05;9.37;;;8.47;;
8887;SDS011;4480;52.370;9.748;2023-05-07T08:14:33;9.80;;;8.80;;
8887;SDS011;4480;52.370;9.748;2023-05-07T08:17:00;10.40;;;9.40;;
8887;SDS011;4480;52.370;9.748;2023-05-07T08:19:26;10.20;;;7.80;;
8887;SDS011;4480;52.370;9.748;2023-05-07T08:21:53;7.90;;;7.30;;
8887;SDS011;4480;52.370;9.748;2023-05-07T08:24:20;11.27;;;9.87;;
8887;SDS011;4480;52.370;9.748;2023-05-07T08:26:47;8.87;;;8.07;;
8887;SDS011;4480;52.370;9.748;2023-05-07T08:29:15;10.00;;;9.10;;
8887;SDS011;4480;52.370;9.748;2023-05-07T08:31:42;10.10;;;9.10;;
8887;SDS011;4480;52.370;9.748;2023-05-07T08:34:09;10.27;;;8.40;;
8887;SDS011;4480;52.370;9.748;2023-05-07T08:36:36;9.23;;;8.03;;
8887;SDS011;4480;52.370;9.748;2023-05-07T08:39:03;9.17;;;8.37;;
8887;SDS011;4480;52.370;9.748;2023-05-07T08:41:29;9.73;;;8.90;;
8887;SDS011;4480;52.370;9.748;2023-05-07T08:43:57;8.70;;;7.87;;
8887;SDS011;4480;52.370;9.748;2023-05-07T08:46:27;8.90;;;8.00;;
8887;SDS011;4480;52.370;9.748;2023-05-07T08:48:57;9.97;;;7.93;;
8887;SDS011;4480;52.370;9.748;2023-05-07T08:51:24;8.43;;;7.70;;
8887;SDS011;4480;52.370;9.748;2023-05-07T08:53:52;10.17;;;9.17;;
8887;SDS011;4480;52.370;9.748;2023-05-07T08:56:18;10.20;;;8.67;;
8887;SDS011;4480;52.370;9.748;2023-05-07T08:58:46;9.67;;;8.80;;
8887;SDS011;4480;52.370;9.748;2023-05-07T09:01:14;9.00;;;8.07;;
8887;SDS011;4480;52.370;9.748;2023-05-07T09:03:44;8.40;;;7.57;;
8887;SDS011;4480;52.370;9.748;2023-05-07T09:06:12;9.70;;;8.80;;
8887;SDS011;4480;52.370;9.748;2023-05-07T09:08:38;8.03;;;7.33;;
8887;SDS011;4480;52.370;9.748;2023-05-07T09:11:05;8.67;;;7.97;;
8887;SDS011;4480;52.370;9.748;2023-05-07T09:13:32;9.20;;;8.40;;
8887;SDS011;4480;52.370;9.748;2023-05-07T09:15:59;8.63;;;7.83;;
8887;SDS011;4480;52.370;9.748;2023-05-07T09:18:40;10.60;;;8.63;;
8887;SDS011;4480;52.370;9.748;2023-05-07T09:21:10;8.80;;;7.90;;
8887;SDS011;4480;52.370;9.748;2023-05-07T09:23:37;9.40;;;8.50;;
8887;SDS011;4480;52.370;9.748;2023-05-07T09:26:04;8.83;;;8.03;;
8887;SDS011;4480;52.370;9.748;2023-05-07T09:28:37;8.93;;;8.10;;
8887;SDS011;4480;52.370;9.748;2023-05-07T09:31:05;9.20;;;8.07;;
8887;SDS011;4480;52.370;9.748;2023-05-07T09:33:32;9.60;;;8.37;;
8887;SDS011;4480;52.370;9.748;2023-05-07T09:36:01;9.40;;;8.50;;
8887;SDS011;4480;52.370;9.748;2023-05-07T09:38:30;8.90;;;8.03;;
8887;SDS011;4480;52.370;9.748;2023-05-07T09:41:04;10.90;;;8.43;;
8887;SDS011;4480;52.370;9.748;2023-05-07T09:43:32;9.10;;;8.23;;
8887;SDS011;4480;52.370;9.748;2023-05-07T09:46:01;9.40;;;8.50;;
8887;SDS011;4480;52.370;9.748;2023-05-07T09:48:29;12.20;;;8.60;;
8887;SDS011;4480;52.370;9.748;2023-05-07T09:50:57;9.97;;;8.97;;
8887;SDS011;4480;52.370;9.748;2023-05-07T09:53:26;9.27;;;8.47;;
8887;SDS011;4480;52.370;9.748;2023-05-07T09:55:56;9.73;;;8.60;;
8887;SDS011;4480;52.370;9.748;2023-05-07T09:58:25;9.30;;;8.40;;
8887;SDS011;4480;52.370;9.748;2023-05-07T10:00:52;8.77;;;7.87;;
8887;SDS011;4480;52.370;9.748;2023-05-07T10:03:19;8.53;;;7.60;;
8887;SDS011;4480;52.370;9.748;2023-05-07T10:05:47;10.03;;;9.03;;
8887;SDS011;4480;52.370;9.748;2023-05-07T10:08:16;9.70;;;8.80;;
8887;SDS011;4480;52.370;9.748;2023-05-07T10:10:45;9.17;;;8.17;;
8887;SDS011;4480;52.370;9.748;2023-05-07T10:13:13;10.57;;;9.47;;
8887;SDS011;4480;52.370;9.748;2023-05-07T10:15:40;10.13;;;8.93;;
8887;SDS011;4480;52.370;9.748;2023-05-07T10:18:07;9.93;;;8.93;;
8887;SDS011;4480;52.370;9.748;2023-05-07T10:20:34;9.50;;;8.60;;
8887;SDS011;4480;52.370;9.748;2023-05-07T10:23:02;9.80;;;8.90;;
8887;SDS011;4480;52.370;9.748;2023-05-07T10:25:31;9.50;;;8.60;;
8887;SDS011;4480;52.370;9.748;2023-05-07T10:27:59;10.00;;;9.00;;
8887;SDS011;4480;52.370;9.748;2023-05-07T10:30:34;12.43;;;8.70;;
8887;SDS011;4480;52.370;9.748;2023-05-07T10:33:11;11.50;;;9.70;;
8887;SDS011;4480;52.370;9.748;2023-05-07T10:35:41;10.30;;;9.30;;
8887;SDS011;4480;52.370;9.748;2023-05-07T10:38:10;9.53;;;8.63;;
8887;SDS011;4480;52.370;9.748;2023-05-07T10:40:36;10.67;;;9.67;;
8887;SDS011;4480;52.370;9.748;2023-05-07T10:43:04;9.40;;;8.50;;
8887;SDS011;4480;52.370;9.748;2023-05-07T10:45:32;9.30;;;7.87;;
8887;SDS011;4480;52.370;9.748;2023-05-07T10:48:06;9.53;;;8.63;;
8887;SDS011;4480;52.370;9.748;2023-05-07T10:50:37;9.23;;;8.33;;
8887;SDS011;4480;52.370;9.748;2023-05-07T10:53:20;10.27;;;7.80;;
8887;SDS011;4480;52.370;9.748;2023-05-07T10:55:51;8.60;;;7.80;;
8887;SDS011;4480;52.370;9.748;2023-05-07T10:58:38;8.63;;;7.83;;
8887;SDS011;4480;52.370;9.748;2023-05-07T11:01:06;8.97;;;8.17;;
8887;SDS011;4480;52.370;9.748;2023-05-07T11:03:33;8.90;;;8.07;;
8887;SDS011;4480;52.370;9.748;2023-05-07T11:06:09;8.10;;;7.40;;
8887;SDS011;4480;52.370;9.748;2023-05-07T11:08:53;8.13;;;7.43;;
8887;SDS011;4480;52.370;9.748;2023-05-07T11:11:26;9.37;;;8.23;;
8887;SDS011;4480;52.370;9.748;2023-05-07T11:14:10;8.47;;;7.70;;
8887;SDS011;4480;52.370;9.748;2023-05-07T11:16:38;7.50;;;6.80;;
8887;SDS011;4480;52.370;9.748;2023-05-07T11:19:07;7.97;;;7.17;;
8887;SDS011;4480;52.370;9.748;2023-05-07T11:21:34;7.57;;;6.87;;
8887;SDS011;4480;52.370;9.748;2023-05-07T11:24:02;7.20;;;6.50;;
8887;SDS011;4480;52.370;9.748;2023-05-07T11:26:30;7.20;;;6.50;;
8887;SDS011;4480;52.370;9.748;2023-05-07T11:29:10;8.30;;;7.33;;
8887;SDS011;4480;52.370;9.748;2023-05-07T11:31:38;8.13;;;7.30;;
8887;SDS011;4480;52.370;9.748;2023-05-07T11:34:06;8.00;;;7.30;;
8887;SDS011;4480;52.370;9.748;2023-05-07T11:36:33;7.20;;;6.60;;
8887;SDS011;4480;52.370;9.748;2023-05-07T11:39:00;7.30;;;6.70;;
8887;SDS011;4480;52.370;9.748;2023-05-07T11:41:33;7.13;;;6.53;;
8887;SDS011;4480;52.370;9.748;2023-05-07T11:44:01;9.67;;;7.03;;
8887;SDS011;4480;52.370;9.748;2023-05-07T11:46:27;7.17;;;6.47;;
8887;SDS011;4480;52.370;9.748;2023-05-07T11:48:56;7.80;;;7.00;;
8887;SDS011;4480;52.370;9.748;2023-05-07T11:51:23;6.83;;;6.23;;
8887;SDS011;4480;52.370;9.748;2023-05-07T11:53:52;7.23;;;6.57;;
8887;SDS011;4480;52.370;9.748;2023-05-07T11:56:19;7.73;;;7.13;;
8887;SDS011;4480;52.370;9.748;2023-05-07T11:58:47;6.93;;;6.33;;
8887;SDS011;4480;52.370;9.748;2023-05-07T12:01:15;7.63;;;6.87;;
8887;SDS011;4480;52.370;9.748;2023-05-07T12:03:43;6.37;;;5.87;;
8887;SDS011;4480;52.370;9.748;2023-05-07T12:06:13;6.70;;;6.10;;
8887;SDS011;4480;52.370;9.748;2023-05-07T12:08:41;6.77;;;6.07;;
8887;SDS011;4480;52.370;9.748;2023-05-07T12:11:10;7.80;;;7.07;;
8887;SDS011;4480;52.370;9.748;2023-05-07T12:13:41;6.60;;;6.00;;
8887;SDS011;4480;52.370;9.748;2023-05-07T12:16:08;7.63;;;6.93;;
8887;SDS011;4480;52.370;9.748;2023-05-07T12:18:36;7.13;;;6.50;;
8887;SDS011;4480;52.370;9.748;2023-05-07T12:21:03;7.40;;;6.70;;
8887;SDS011;4480;52.370;9.748;2023-05-07T12:23:33;6.57;;;5.97;;
8887;SDS011;4480;52.370;9.748;2023-05-07T12:26:00;8.30;;;6.70;;
8887;SDS011;4480;52.370;9.748;2023-05-07T12:28:27;8.37;;;6.30;;
8887;SDS011;4480;52.370;9.748;2023-05-07T12:30:55;5.93;;;5.43;;
8887;SDS011;4480;52.370;9.748;2023-05-07T12:33:23;5.90;;;5.30;;
8887;SDS011;4480;52.370;9.748;2023-05-07T12:35:52;6.00;;;5.40;;
8887;SDS011;4480;52.370;9.748;2023-05-07T12:38:20;6.27;;;5.67;;
8887;SDS011;4480;52.370;9.748;2023-05-07T12:40:49;6.80;;;6.20;;
8887;SDS011;4480;52.370;9.748;2023-05-07T12:43:17;6.50;;;6.00;;
8887;SDS011;4480;52.370;9.748;2023-05-07T12:45:44;6.63;;;5.83;;
8887;SDS011;4480;52.370;9.748;2023-05-07T12:48:13;7.50;;;6.73;;
8887;SDS011;4480;52.370;9.748;2023-05-07T12:50:39;6.60;;;5.67;;
8887;SDS011;4480;52.370;9.748;2023-05-07T12:53:07;5.60;;;5.10;;
8887;SDS011;4480;52.370;9.748;2023-05-07T12:55:42;6.23;;;5.70;;
8887;SDS011;4480;52.370;9.748;2023-05-07T12:58:15;6.03;;;5.50;;
8887;SDS011;4480;52.370;9.748;2023-05-07T13:00:43;5.87;;;5.27;;
8887;SDS011;4480;52.370;9.748;2023-05-07T13:03:10;6.83;;;6.23;;
8887;SDS011;4480;52.370;9.748;2023-05-07T13:05:37;6.70;;;6.17;;
8887;SDS011;4480;52.370;9.748;2023-05-07T13:08:04;7.00;;;6.40;;
8887;SDS011;4480;52.370;9.748;2023-05-07T13:10:31;7.50;;;6.80;;
8887;SDS011;4480;52.370;9.748;2023-05-07T13:12:59;7.10;;;6.60;;
8887;SDS011;4480;52.370;9.748;2023-05-07T13:15:27;7.97;;;7.30;;
8887;SDS011;4480;52.370;9.748;2023-05-07T13:17:54;7.90;;;7.20;;
8887;SDS011;4480;52.370;9.748;2023-05-07T13:20:21;7.87;;;7.27;;
8887;SDS011;4480;52.370;9.748;2023-05-07T13:22:48;7.67;;;7.07;;
8887;SDS011;4480;52.370;9.748;2023-05-07T13:25:14;8.13;;;7.43;;
8887;SDS011;4480;52.370;9.748;2023-05-07T13:27:41;8.00;;;7.27;;
8887;SDS011;4480;52.370;9.748;2023-05-07T13:30:08;6.90;;;5.80;;
8887;SDS011;4480;52.370;9.748;2023-05-07T13:32:36;7.00;;;6.50;;
8887;SDS011;4480;52.370;9.748;2023-05-07T13:35:03;7.43;;;6.57;;
8887;SDS011;4480;52.370;9.748;2023-05-07T13:37:31;7.73;;;7.13;;
8887;SDS011;4480;52.370;9.748;2023-05-07T13:39:57;9.03;;;8.33;;
8887;SDS011;4480;52.370;9.748;2023-05-07T13:42:24;8.80;;;8.00;;
8887;SDS011;4480;52.370;9.748;2023-05-07T13:44:51;8.73;;;7.27;;
8887;SDS011;4480;52.370;9.748;2023-05-07T13:47:18;8.40;;;7.70;;
8887;SDS011;4480;52.370;9.748;2023-05-07T13:49:49;8.07;;;7.37;;
8887;SDS011;4480;52.370;9.748;2023-05-07T13:52:15;9.37;;;8.57;;
8887;SDS011;4480;52.370;9.748;2023-05-07T13:54:42;8.13;;;7.33;;
8887;SDS011;4480;52.370;9.748;2023-05-07T13:57:09;8.13;;;7.33;;
8887;SDS011;4480;52.370;9.748;2023-05-07T13:59:36;8.80;;;8.07;;
8887;SDS011;4480;52.370;9.748;2023-05-07T14:02:03;8.47;;;7.77;;
8887;SDS011;4480;52.370;9.748;2023-05-07T14:04:30;8.10;;;7.40;;
8887;SDS011;4480;52.370;9.748;2023-05-07T14:06:58;7.90;;;7.20;;
8887;SDS011;4480;52.370;9.748;2023-05-07T14:09:25;7.27;;;6.57;;
8887;SDS011;4480;52.370;9.748;2023-05-07T14:11:52;7.53;;;6.93;;
8887;SDS011;4480;52.370;9.748;2023-05-07T14:14:18;9.47;;;8.67;;
8887;SDS011;4480;52.370;9.748;2023-05-07T14:16:45;6.60;;;6.07;;
8887;SDS011;4480;52.370;9.748;2023-05-07T14:19:12;7.17;;;6.50;;
8887;SDS011;4480;52.370;9.748;2023-05-07T14:21:39;6.00;;;5.50;;
8887;SDS011;4480;52.370;9.748;2023-05-07T14:24:07;6.90;;;6.30;;
8887;SDS011;4480;52.370;9.748;2023-05-07T14:26:34;6.20;;;5.70;;
8887;SDS011;4480;52.370;9.748;2023-05-07T14:29:01;6.50;;;5.90;;
8887;SDS011;4480;52.370;9.748;2023-05-07T14:31:28;6.90;;;6.30;;
8887;SDS011;4480;52.370;9.748;2023-05-07T14:33:55;6.73;;;5.80;;
8887;SDS011;4480;52.370;9.748;2023-05-07T14:36:23;7.37;;;5.83;;
8887;SDS011;4480;52.370;9.748;2023-05-07T14:38:51;6.90;;;6.20;;
8887;SDS011;4480;52.370;9.748;2023-05-07T14:41:19;8.50;;;6.63;;
8887;SDS011;4480;52.370;9.748;2023-05-07T14:43:46;7.33;;;6.67;;
8887;SDS011;4480;52.370;9.748;2023-05-07T14:46:15;7.40;;;6.67;;
8887;SDS011;4480;52.370;9.748;2023-05-07T14:48:43;6.57;;;6.07;;
8887;SDS011;4480;52.370;9.748;2023-05-07T14:51:10;7.03;;;6.43;;
8887;SDS011;4480;52.370;9.748;2023-05-07T14:53:37;6.97;;;6.27;;
8887;SDS011;4480;52.370;9.748;2023-05-07T14:56:04;7.60;;;6.90;;
8887;SDS011;4480;52.370;9.748;2023-05-07T14:58:32;6.40;;;5.80;;
8887;SDS011;4480;52.370;9.748;2023-05-07T15:00:59;6.87;;;6.27;;
8887;SDS011;4480;52.370;9.748;2023-05-07T15:03:26;6.70;;;6.10;;
8887;SDS011;4480;52.370;9.748;2023-05-07T15:05:53;8.43;;;6.33;;
8887;SDS011;4480;52.370;9.748;2023-05-07T15:08:20;7.20;;;6.47;;
8887;SDS011;4480;52.370;9.748;2023-05-07T15:10:47;6.83;;;6.23;;
8887;SDS011;4480;52.370;9.748;2023-05-07T15:13:14;6.60;;;5.90;;